sensor_id;sensor_type;location;lat;lon;timestamp;temperature;humidity
10492;DHT22;5293;51.464;-2.566;2023-06-10T00:00:34;17.60;99.90
10492;DHT22;5293;51.464;-2.566;2023-06-10T00:03:00;17.60;99.90
10492;DHT22;5293;51.464;-2.566;2023-06-10T00:05:25;17.50;99.90
10492;DHT22;5293;51.464;-2.566;2023-06-10T00:07:56;17.50;99.90
10492;DHT22;5293;51.464;-2.566;2023-06-10T00:10:22;17.40;99.90
10492;DHT22;5293;51.464;-2.566;2023-06-10T00:12:48;17.30;99.90
10492;DHT22;5293;51.464;-2.566;2023-06-10T00:15:14;17.30;99.90
10492;DHT22;5293;51.464;-2.566;2023-06-10T00:17:39;17.30;99.90
10492;DHT22;5293;51.464;-2.566;2023-06-10T00:20:09;17.30;99.90
10492;DHT22;5293;51.464;-2.566;2023-06-10T00:22:38;17.30;99.90
10492;DHT22;5293;51.464;-2.566;2023-06-10T00:25:05;17.30;99.90
10492;DHT22;5293;51.464;-2.566;2023-06-10T00:27:31;17.20;99.90
10492;DHT22;5293;51.464;-2.566;2023-06-10T00:30:04;17.10;99.90
10492;DHT22;5293;51.464;-2.566;2023-06-10T00:32:35;17.10;99.90
10492;DHT22;5293;51.464;-2.566;2023-06-10T00:35:01;16.90;99.90
10492;DHT22;5293;51.464;-2.566;2023-06-10T00:37:27;16.90;99.90
10492;DHT22;5293;51.464;-2.566;2023-06-10T00:39:54;16.90;99.90
10492;DHT22;5293;51.464;-2.566;2023-06-10T00:42:20;16.70;99.90
10492;DHT22;5293;51.464;-2.566;2023-06-10T00:44:47;16.70;99.90
10492;DHT22;5293;51.464;-2.566;2023-06-10T00:47:13;16.70;99.90
10492;DHT22;5293;51.464;-2.566;2023-06-10T00:49:39;16.70;99.90
10492;DHT22;5293;51.464;-2.566;2023-06-10T00:52:07;16.70;99.90
10492;DHT22;5293;51.464;-2.566;2023-06-10T00:54:33;16.60;99.90
10492;DHT22;5293;51.464;-2.566;2023-06-10T00:57:01;16.60;99.90
10492;DHT22;5293;51.464;-2.566;2023-06-10T00:59:28;16.50;99.90
10492;DHT22;5293;51.464;-2.566;2023-06-10T01:01:54;16.40;99.90
10492;DHT22;5293;51.464;-2.566;2023-06-10T01:04:21;16.30;99.90
10492;DHT22;5293;51.464;-2.566;2023-06-10T01:07:10;16.20;99.90
10492;DHT22;5293;51.464;-2.566;2023-06-10T01:10:01;16.20;99.90
10492;DHT22;5293;51.464;-2.566;2023-06-10T01:15:09;16.00;99.90
10492;DHT22;5293;51.464;-2.566;2023-06-10T01:17:59;16.00;99.90
10492;DHT22;5293;51.464;-2.566;2023-06-10T01:20:27;16.00;99.90
10492;DHT22;5293;51.464;-2.566;2023-06-10T01:22:57;15.90;99.90
10492;DHT22;5293;51.464;-2.566;2023-06-10T01:25:24;15.80;99.90
10492;DHT22;5293;51.464;-2.566;2023-06-10T01:28:02;15.70;99.90
10492;DHT22;5293;51.464;-2.566;2023-06-10T01:30:36;15.80;99.90
10492;DHT22;5293;51.464;-2.566;2023-06-10T01:33:05;15.90;99.90
10492;DHT22;5293;51.464;-2.566;2023-06-10T01:35:33;15.90;99.90
10492;DHT22;5293;51.464;-2.566;2023-06-10T01:38:02;15.90;99.90
10492;DHT22;5293;51.464;-2.566;2023-06-10T01:40:29;15.80;99.90
10492;DHT22;5293;51.464;-2.566;2023-06-10T01:42:55;15.80;99.90
10492;DHT22;5293;51.464;-2.566;2023-06-10T01:45:21;15.50;99.90
10492;DHT22;5293;51.464;-2.566;2023-06-10T01:47:47;15.40;99.90
10492;DHT22;5293;51.464;-2.566;2023-06-10T01:50:12;15.30;99.90
10492;DHT22;5293;51.464;-2.566;2023-06-10T01:52:38;15.20;99.90
10492;DHT22;5293;51.464;-2.566;2023-06-10T01:55:04;15.30;99.90
10492;DHT22;5293;51.464;-2.566;2023-06-10T01:57:30;15.30;99.90
10492;DHT22;5293;51.464;-2.566;2023-06-10T01:59:55;15.20;99.90
10492;DHT22;5293;51.464;-2.566;2023-06-10T02:02:21;15.20;99.90
10492;DHT22;5293;51.464;-2.566;2023-06-10T02:04:47;15.20;99.90
10492;DHT22;5293;51.464;-2.566;2023-06-10T02:07:13;15.20;99.90
10492;DHT22;5293;51.464;-2.566;2023-06-10T02:09:39;15.20;99.90
10492;DHT22;5293;51.464;-2.566;2023-06-10T02:12:05;15.30;99.90
10492;DHT22;5293;51.464;-2.566;2023-06-10T02:14:32;15.30;99.90
10492;DHT22;5293;51.464;-2.566;2023-06-10T02:16:58;15.30;99.90
10492;DHT22;5293;51.464;-2.566;2023-06-10T02:19:23;15.20;99.90
10492;DHT22;5293;51.464;-2.566;2023-06-10T02:21:52;15.20;99.90
10492;DHT22;5293;51.464;-2.566;2023-06-10T02:24:17;15.20;99.90
10492;DHT22;5293;51.464;-2.566;2023-06-10T02:26:43;15.30;99.90
10492;DHT22;5293;51.464;-2.566;2023-06-10T02:29:09;15.30;99.90
10492;DHT22;5293;51.464;-2.566;2023-06-10T02:31:35;15.30;99.90
10492;DHT22;5293;51.464;-2.566;2023-06-10T02:34:01;15.20;99.90
10492;DHT22;5293;51.464;-2.566;2023-06-10T02:36:28;15.30;99.90
10492;DHT22;5293;51.464;-2.566;2023-06-10T02:38:54;15.20;99.90
10492;DHT22;5293;51.464;-2.566;2023-06-10T02:41:19;15.10;99.90
10492;DHT22;5293;51.464;-2.566;2023-06-10T02:43:47;15.00;99.90
10492;DHT22;5293;51.464;-2.566;2023-06-10T02:46:13;15.00;99.90
10492;DHT22;5293;51.464;-2.566;2023-06-10T02:48:42;15.00;99.90
10492;DHT22;5293;51.464;-2.566;2023-06-10T02:51:09;14.90;99.90
10492;DHT22;5293;51.464;-2.566;2023-06-10T02:53:35;15.00;99.90
10492;DHT22;5293;51.464;-2.566;2023-06-10T02:56:01;15.00;99.90
10492;DHT22;5293;51.464;-2.566;2023-06-10T02:58:27;14.90;99.90
10492;DHT22;5293;51.464;-2.566;2023-06-10T03:00:52;14.90;99.90
10492;DHT22;5293;51.464;-2.566;2023-06-10T03:03:18;15.00;99.90
10492;DHT22;5293;51.464;-2.566;2023-06-10T03:05:44;14.90;99.90
10492;DHT22;5293;51.464;-2.566;2023-06-10T03:08:09;14.90;99.90
10492;DHT22;5293;51.464;-2.566;2023-06-10T03:10:35;14.90;99.90
10492;DHT22;5293;51.464;-2.566;2023-06-10T03:13:01;14.90;99.90
10492;DHT22;5293;51.464;-2.566;2023-06-10T03:15:27;14.90;99.90
10492;DHT22;5293;51.464;-2.566;2023-06-10T03:17:54;15.00;99.90
10492;DHT22;5293;51.464;-2.566;2023-06-10T03:20:20;15.00;99.90
10492;DHT22;5293;51.464;-2.566;2023-06-10T03:22:47;14.80;99.90
10492;DHT22;5293;51.464;-2.566;2023-06-10T03:25:12;14.90;99.90
10492;DHT22;5293;51.464;-2.566;2023-06-10T03:27:42;14.80;99.90
10492;DHT22;5293;51.464;-2.566;2023-06-10T03:30:08;14.80;99.90
10492;DHT22;5293;51.464;-2.566;2023-06-10T03:32:34;14.80;99.90
10492;DHT22;5293;51.464;-2.566;2023-06-10T03:35:01;14.70;99.90
10492;DHT22;5293;51.464;-2.566;2023-06-10T03:37:26;14.60;99.90
10492;DHT22;5293;51.464;-2.566;2023-06-10T03:39:52;14.60;99.90
10492;DHT22;5293;51.464;-2.566;2023-06-10T03:42:18;14.80;99.90
10492;DHT22;5293;51.464;-2.566;2023-06-10T03:44:43;14.80;99.90
10492;DHT22;5293;51.464;-2.566;2023-06-10T03:47:09;14.80;99.90
10492;DHT22;5293;51.464;-2.566;2023-06-10T03:49:35;14.80;99.90
10492;DHT22;5293;51.464;-2.566;2023-06-10T03:52:02;14.80;99.90
10492;DHT22;5293;51.464;-2.566;2023-06-10T03:54:27;14.90;99.90
10492;DHT22;5293;51.464;-2.566;2023-06-10T03:56:53;14.80;99.90
10492;DHT22;5293;51.464;-2.566;2023-06-10T03:59:19;14.90;99.90
10492;DHT22;5293;51.464;-2.566;2023-06-10T04:01:44;15.00;99.90
10492;DHT22;5293;51.464;-2.566;2023-06-10T04:04:14;15.10;99.90
10492;DHT22;5293;51.464;-2.566;2023-06-10T04:06:40;15.20;99.90
10492;DHT22;5293;51.464;-2.566;2023-06-10T04:09:06;15.20;99.90
10492;DHT22;5293;51.464;-2.566;2023-06-10T04:11:33;15.20;99.90
10492;DHT22;5293;51.464;-2.566;2023-06-10T04:13:59;15.10;99.90
10492;DHT22;5293;51.464;-2.566;2023-06-10T04:16:25;14.90;99.90
10492;DHT22;5293;51.464;-2.566;2023-06-10T04:18:50;15.00;99.90
10492;DHT22;5293;51.464;-2.566;2023-06-10T04:21:16;15.10;99.90
10492;DHT22;5293;51.464;-2.566;2023-06-10T04:23:42;15.20;99.90
10492;DHT22;5293;51.464;-2.566;2023-06-10T04:26:07;15.10;99.90
10492;DHT22;5293;51.464;-2.566;2023-06-10T04:28:33;15.10;99.90
10492;DHT22;5293;51.464;-2.566;2023-06-10T04:30:59;15.10;99.90
10492;DHT22;5293;51.464;-2.566;2023-06-10T04:33:24;15.20;99.90
10492;DHT22;5293;51.464;-2.566;2023-06-10T04:35:50;15.30;99.90
10492;DHT22;5293;51.464;-2.566;2023-06-10T04:38:16;15.30;99.90
10492;DHT22;5293;51.464;-2.566;2023-06-10T04:40:41;15.30;99.90
10492;DHT22;5293;51.464;-2.566;2023-06-10T04:43:07;15.40;99.90
10492;DHT22;5293;51.464;-2.566;2023-06-10T04:45:33;15.40;99.90
10492;DHT22;5293;51.464;-2.566;2023-06-10T04:47:58;15.40;99.90
10492;DHT22;5293;51.464;-2.566;2023-06-10T04:50:24;15.40;99.90
10492;DHT22;5293;51.464;-2.566;2023-06-10T04:52:50;15.40;99.90
10492;DHT22;5293;51.464;-2.566;2023-06-10T04:55:16;15.30;99.90
10492;DHT22;5293;51.464;-2.566;2023-06-10T04:57:41;15.40;99.90
10492;DHT22;5293;51.464;-2.566;2023-06-10T05:00:07;15.50;99.90
10492;DHT22;5293;51.464;-2.566;2023-06-10T05:02:34;15.50;99.90
10492;DHT22;5293;51.464;-2.566;2023-06-10T05:05:00;15.70;99.90
10492;DHT22;5293;51.464;-2.566;2023-06-10T05:07:26;15.60;99.90
10492;DHT22;5293;51.464;-2.566;2023-06-10T05:09:51;15.70;99.90
10492;DHT22;5293;51.464;-2.566;2023-06-10T05:12:17;15.70;99.90
10492;DHT22;5293;51.464;-2.566;2023-06-10T05:14:43;15.60;99.90
10492;DHT22;5293;51.464;-2.566;2023-06-10T05:17:10;15.60;99.90
10492;DHT22;5293;51.464;-2.566;2023-06-10T05:19:35;15.60;99.90
10492;DHT22;5293;51.464;-2.566;2023-06-10T05:22:02;15.60;99.90
10492;DHT22;5293;51.464;-2.566;2023-06-10T05:24:28;15.70;99.90
10492;DHT22;5293;51.464;-2.566;2023-06-10T05:26:54;15.80;99.90
10492;DHT22;5293;51.464;-2.566;2023-06-10T05:29:20;15.80;99.90
10492;DHT22;5293;51.464;-2.566;2023-06-10T05:31:45;15.90;99.90
10492;DHT22;5293;51.464;-2.566;2023-06-10T05:34:11;15.80;99.90
10492;DHT22;5293;51.464;-2.566;2023-06-10T05:36:37;15.90;99.90
10492;DHT22;5293;51.464;-2.566;2023-06-10T05:39:03;15.80;99.90
10492;DHT22;5293;51.464;-2.566;2023-06-10T05:41:28;15.70;99.90
10492;DHT22;5293;51.464;-2.566;2023-06-10T05:43:54;15.70;99.90
10492;DHT22;5293;51.464;-2.566;2023-06-10T05:46:20;15.70;99.90
10492;DHT22;5293;51.464;-2.566;2023-06-10T05:48:46;15.70;99.90
10492;DHT22;5293;51.464;-2.566;2023-06-10T05:51:12;15.80;99.90
10492;DHT22;5293;51.464;-2.566;2023-06-10T05:53:37;15.80;99.90
10492;DHT22;5293;51.464;-2.566;2023-06-10T05:56:04;15.90;99.90
10492;DHT22;5293;51.464;-2.566;2023-06-10T05:58:29;16.00;99.90
10492;DHT22;5293;51.464;-2.566;2023-06-10T06:00:55;15.90;99.90
10492;DHT22;5293;51.464;-2.566;2023-06-10T06:03:21;15.90;99.90
10492;DHT22;5293;51.464;-2.566;2023-06-10T06:05:46;15.80;99.90
10492;DHT22;5293;51.464;-2.566;2023-06-10T06:08:12;15.80;99.90
10492;DHT22;5293;51.464;-2.566;2023-06-10T06:10:46;15.80;99.90
10492;DHT22;5293;51.464;-2.566;2023-06-10T06:13:13;16.00;99.90
10492;DHT22;5293;51.464;-2.566;2023-06-10T06:15:39;16.10;99.90
10492;DHT22;5293;51.464;-2.566;2023-06-10T06:18:04;16.10;99.90
10492;DHT22;5293;51.464;-2.566;2023-06-10T06:20:30;16.10;99.90
10492;DHT22;5293;51.464;-2.566;2023-06-10T06:22:56;16.00;99.90
10492;DHT22;5293;51.464;-2.566;2023-06-10T06:25:21;16.00;99.90
10492;DHT22;5293;51.464;-2.566;2023-06-10T06:27:47;16.00;99.90
10492;DHT22;5293;51.464;-2.566;2023-06-10T06:30:13;16.10;99.90
10492;DHT22;5293;51.464;-2.566;2023-06-10T06:32:38;16.20;99.90
10492;DHT22;5293;51.464;-2.566;2023-06-10T06:35:04;16.20;99.90
10492;DHT22;5293;51.464;-2.566;2023-06-10T06:37:33;16.20;99.90
10492;DHT22;5293;51.464;-2.566;2023-06-10T06:39:59;16.30;99.90
10492;DHT22;5293;51.464;-2.566;2023-06-10T06:42:25;16.30;99.90
10492;DHT22;5293;51.464;-2.566;2023-06-10T06:44:50;16.50;99.90
10492;DHT22;5293;51.464;-2.566;2023-06-10T06:47:16;16.60;99.90
10492;DHT22;5293;51.464;-2.566;2023-06-10T06:49:48;16.70;99.90
10492;DHT22;5293;51.464;-2.566;2023-06-10T06:52:15;16.60;99.90
10492;DHT22;5293;51.464;-2.566;2023-06-10T06:54:41;16.50;99.90
10492;DHT22;5293;51.464;-2.566;2023-06-10T06:57:07;16.60;99.90
10492;DHT22;5293;51.464;-2.566;2023-06-10T06:59:33;16.80;99.90
10492;DHT22;5293;51.464;-2.566;2023-06-10T07:01:58;16.80;99.90
10492;DHT22;5293;51.464;-2.566;2023-06-10T07:04:24;16.90;99.90
10492;DHT22;5293;51.464;-2.566;2023-06-10T07:06:50;17.10;99.90
10492;DHT22;5293;51.464;-2.566;2023-06-10T07:09:16;17.10;99.90
10492;DHT22;5293;51.464;-2.566;2023-06-10T07:11:41;17.00;99.90
10492;DHT22;5293;51.464;-2.566;2023-06-10T07:14:07;16.90;99.90
10492;DHT22;5293;51.464;-2.566;2023-06-10T07:16:33;16.90;99.90
10492;DHT22;5293;51.464;-2.566;2023-06-10T07:18:58;17.00;99.90
10492;DHT22;5293;51.464;-2.566;2023-06-10T07:21:24;17.40;99.90
10492;DHT22;5293;51.464;-2.566;2023-06-10T07:23:50;17.50;99.90
10492;DHT22;5293;51.464;-2.566;2023-06-10T07:26:19;17.60;99.90
10492;DHT22;5293;51.464;-2.566;2023-06-10T07:28:44;17.60;99.90
10492;DHT22;5293;51.464;-2.566;2023-06-10T07:31:10;17.40;99.90
10492;DHT22;5293;51.464;-2.566;2023-06-10T07:33:37;17.20;99.90
10492;DHT22;5293;51.464;-2.566;2023-06-10T07:36:05;17.30;99.90
10492;DHT22;5293;51.464;-2.566;2023-06-10T07:38:31;17.50;99.90
10492;DHT22;5293;51.464;-2.566;2023-06-10T07:40:56;17.70;99.90
10492;DHT22;5293;51.464;-2.566;2023-06-10T07:43:22;17.80;99.90
10492;DHT22;5293;51.464;-2.566;2023-06-10T07:45:48;17.90;99.90
10492;DHT22;5293;51.464;-2.566;2023-06-10T07:48:13;18.20;99.90
10492;DHT22;5293;51.464;-2.566;2023-06-10T07:50:39;18.30;99.90
10492;DHT22;5293;51.464;-2.566;2023-06-10T07:53:06;18.50;99.90
10492;DHT22;5293;51.464;-2.566;2023-06-10T07:55:31;18.40;99.90
10492;DHT22;5293;51.464;-2.566;2023-06-10T07:57:57;18.50;99.90
10492;DHT22;5293;51.464;-2.566;2023-06-10T08:00:23;18.60;99.90
10492;DHT22;5293;51.464;-2.566;2023-06-10T08:02:49;18.70;99.90
10492;DHT22;5293;51.464;-2.566;2023-06-10T08:05:15;18.90;99.90
10492;DHT22;5293;51.464;-2.566;2023-06-10T08:07:41;18.80;99.90
10492;DHT22;5293;51.464;-2.566;2023-06-10T08:10:07;18.60;99.90
10492;DHT22;5293;51.464;-2.566;2023-06-10T08:12:34;18.70;99.90
10492;DHT22;5293;51.464;-2.566;2023-06-10T08:15:01;19.00;99.90
10492;DHT22;5293;51.464;-2.566;2023-06-10T08:17:26;19.10;99.90
10492;DHT22;5293;51.464;-2.566;2023-06-10T08:19:52;19.00;99.90
10492;DHT22;5293;51.464;-2.566;2023-06-10T08:22:18;19.20;99.90
10492;DHT22;5293;51.464;-2.566;2023-06-10T08:24:44;19.30;99.90
10492;DHT22;5293;51.464;-2.566;2023-06-10T08:27:09;19.30;99.90
10492;DHT22;5293;51.464;-2.566;2023-06-10T08:29:35;19.40;99.90
10492;DHT22;5293;51.464;-2.566;2023-06-10T08:32:01;19.40;99.90
10492;DHT22;5293;51.464;-2.566;2023-06-10T08:34:27;19.20;99.90
10492;DHT22;5293;51.464;-2.566;2023-06-10T08:36:53;19.10;99.90
10492;DHT22;5293;51.464;-2.566;2023-06-10T08:39:21;19.10;99.90
10492;DHT22;5293;51.464;-2.566;2023-06-10T08:44:40;19.30;99.90
10492;DHT22;5293;51.464;-2.566;2023-06-10T08:47:17;19.50;99.90
10492;DHT22;5293;51.464;-2.566;2023-06-10T08:49:46;19.60;99.90
10492;DHT22;5293;51.464;-2.566;2023-06-10T08:52:17;19.60;99.90
10492;DHT22;5293;51.464;-2.566;2023-06-10T08:55:04;19.80;99.90
10492;DHT22;5293;51.464;-2.566;2023-06-10T08:57:31;19.70;99.90
10492;DHT22;5293;51.464;-2.566;2023-06-10T08:59:57;19.60;99.90
10492;DHT22;5293;51.464;-2.566;2023-06-10T09:02:24;19.60;99.90
10492;DHT22;5293;51.464;-2.566;2023-06-10T09:04:50;19.60;99.90
10492;DHT22;5293;51.464;-2.566;2023-06-10T09:07:17;19.90;99.90
10492;DHT22;5293;51.464;-2.566;2023-06-10T09:09:44;20.00;99.90
10492;DHT22;5293;51.464;-2.566;2023-06-10T09:12:11;20.20;99.90
10492;DHT22;5293;51.464;-2.566;2023-06-10T09:14:37;20.30;99.90
10492;DHT22;5293;51.464;-2.566;2023-06-10T09:17:04;20.30;99.90
10492;DHT22;5293;51.464;-2.566;2023-06-10T09:19:30;20.30;99.90
10492;DHT22;5293;51.464;-2.566;2023-06-10T09:21:57;20.60;99.90
10492;DHT22;5293;51.464;-2.566;2023-06-10T09:24:23;20.60;99.90
10492;DHT22;5293;51.464;-2.566;2023-06-10T09:26:49;20.60;99.90
10492;DHT22;5293;51.464;-2.566;2023-06-10T09:29:16;20.80;99.90
10492;DHT22;5293;51.464;-2.566;2023-06-10T09:31:43;20.80;99.90
10492;DHT22;5293;51.464;-2.566;2023-06-10T09:34:11;20.80;99.90
10492;DHT22;5293;51.464;-2.566;2023-06-10T09:36:38;20.90;99.90
10492;DHT22;5293;51.464;-2.566;2023-06-10T09:39:04;21.10;99.90
10492;DHT22;5293;51.464;-2.566;2023-06-10T09:41:34;21.30;99.90
10492;DHT22;5293;51.464;-2.566;2023-06-10T09:44:01;21.50;99.90
10492;DHT22;5293;51.464;-2.566;2023-06-10T09:46:31;21.60;99.90
10492;DHT22;5293;51.464;-2.566;2023-06-10T09:49:00;21.50;99.90
10492;DHT22;5293;51.464;-2.566;2023-06-10T09:51:25;21.60;99.90
10492;DHT22;5293;51.464;-2.566;2023-06-10T09:53:52;21.70;99.90
10492;DHT22;5293;51.464;-2.566;2023-06-10T09:56:18;21.80;99.90
10492;DHT22;5293;51.464;-2.566;2023-06-10T09:58:45;22.00;99.90
10492;DHT22;5293;51.464;-2.566;2023-06-10T10:01:13;22.10;99.90
10492;DHT22;5293;51.464;-2.566;2023-06-10T10:03:52;22.10;99.90
10492;DHT22;5293;51.464;-2.566;2023-06-10T10:06:19;22.20;99.90
10492;DHT22;5293;51.464;-2.566;2023-06-10T10:08:48;22.20;99.90
10492;DHT22;5293;51.464;-2.566;2023-06-10T10:11:16;22.20;99.90
10492;DHT22;5293;51.464;-2.566;2023-06-10T10:13:45;22.20;99.90
10492;DHT22;5293;51.464;-2.566;2023-06-10T10:16:16;22.40;99.90
10492;DHT22;5293;51.464;-2.566;2023-06-10T10:18:45;22.50;99.90
10492;DHT22;5293;51.464;-2.566;2023-06-10T10:21:13;22.70;99.90
10492;DHT22;5293;51.464;-2.566;2023-06-10T10:26:18;22.90;99.90
10492;DHT22;5293;51.464;-2.566;2023-06-10T10:28:58;23.00;99.90
10492;DHT22;5293;51.464;-2.566;2023-06-10T10:31:29;22.90;99.90
10492;DHT22;5293;51.464;-2.566;2023-06-10T10:33:59;23.10;99.90
10492;DHT22;5293;51.464;-2.566;2023-06-10T10:36:27;23.20;99.90
10492;DHT22;5293;51.464;-2.566;2023-06-10T10:38:53;23.30;99.90
10492;DHT22;5293;51.464;-2.566;2023-06-10T10:41:19;23.40;99.90
10492;DHT22;5293;51.464;-2.566;2023-06-10T10:43:46;23.40;99.90
10492;DHT22;5293;51.464;-2.566;2023-06-10T10:46:15;23.70;99.90
10492;DHT22;5293;51.464;-2.566;2023-06-10T10:48:42;24.00;99.90
10492;DHT22;5293;51.464;-2.566;2023-06-10T10:51:08;24.20;99.90
10492;DHT22;5293;51.464;-2.566;2023-06-10T10:53:36;24.30;99.90
10492;DHT22;5293;51.464;-2.566;2023-06-10T10:56:07;24.40;99.90
10492;DHT22;5293;51.464;-2.566;2023-06-10T10:58:33;24.50;99.90
10492;DHT22;5293;51.464;-2.566;2023-06-10T11:00:59;24.50;99.90
10492;DHT22;5293;51.464;-2.566;2023-06-10T11:03:29;24.60;99.90
10492;DHT22;5293;51.464;-2.566;2023-06-10T11:05:58;24.60;99.90
10492;DHT22;5293;51.464;-2.566;2023-06-10T11:10:59;24.70;99.90
10492;DHT22;5293;51.464;-2.566;2023-06-10T11:13:26;24.70;99.90
10492;DHT22;5293;51.464;-2.566;2023-06-10T11:15:52;24.70;99.90
10492;DHT22;5293;51.464;-2.566;2023-06-10T11:18:29;24.80;99.90
10492;DHT22;5293;51.464;-2.566;2023-06-10T11:21:04;24.90;99.90
10492;DHT22;5293;51.464;-2.566;2023-06-10T11:28:38;25.10;99.90
10492;DHT22;5293;51.464;-2.566;2023-06-10T11:31:03;25.20;99.90
10492;DHT22;5293;51.464;-2.566;2023-06-10T11:33:29;25.10;99.90
10492;DHT22;5293;51.464;-2.566;2023-06-10T11:35:55;25.40;99.90
10492;DHT22;5293;51.464;-2.566;2023-06-10T11:38:21;25.50;99.90
10492;DHT22;5293;51.464;-2.566;2023-06-10T11:40:50;25.60;99.90
10492;DHT22;5293;51.464;-2.566;2023-06-10T11:43:19;25.70;99.90
10492;DHT22;5293;51.464;-2.566;2023-06-10T11:45:46;25.50;99.90
10492;DHT22;5293;51.464;-2.566;2023-06-10T11:48:12;25.40;99.90
10492;DHT22;5293;51.464;-2.566;2023-06-10T11:50:38;25.40;99.90
10492;DHT22;5293;51.464;-2.566;2023-06-10T11:53:04;25.40;99.90
10492;DHT22;5293;51.464;-2.566;2023-06-10T11:55:41;25.50;99.90
10492;DHT22;5293;51.464;-2.566;2023-06-10T11:58:22;25.70;99.90
10492;DHT22;5293;51.464;-2.566;2023-06-10T12:00:52;25.90;99.90
10492;DHT22;5293;51.464;-2.566;2023-06-10T12:03:19;26.10;99.90
10492;DHT22;5293;51.464;-2.566;2023-06-10T12:06:03;26.40;99.90
10492;DHT22;5293;51.464;-2.566;2023-06-10T12:08:30;26.50;99.90
10492;DHT22;5293;51.464;-2.566;2023-06-10T12:10:56;26.50;99.90
10492;DHT22;5293;51.464;-2.566;2023-06-10T12:13:23;26.70;99.90
10492;DHT22;5293;51.464;-2.566;2023-06-10T12:15:52;26.80;99.90
10492;DHT22;5293;51.464;-2.566;2023-06-10T12:18:18;26.70;99.90
10492;DHT22;5293;51.464;-2.566;2023-06-10T12:20:44;26.70;99.90
10492;DHT22;5293;51.464;-2.566;2023-06-10T12:23:11;26.70;99.90
10492;DHT22;5293;51.464;-2.566;2023-06-10T12:25:37;26.90;99.90
10492;DHT22;5293;51.464;-2.566;2023-06-10T12:28:04;27.00;99.90
10492;DHT22;5293;51.464;-2.566;2023-06-10T12:30:32;26.80;99.90
10492;DHT22;5293;51.464;-2.566;2023-06-10T12:32:58;26.90;99.90
10492;DHT22;5293;51.464;-2.566;2023-06-10T12:35:25;26.90;99.90
10492;DHT22;5293;51.464;-2.566;2023-06-10T12:38:04;27.00;99.90
10492;DHT22;5293;51.464;-2.566;2023-06-10T12:40:36;26.90;99.90
10492;DHT22;5293;51.464;-2.566;2023-06-10T12:43:03;27.10;99.90
10492;DHT22;5293;51.464;-2.566;2023-06-10T12:45:34;27.10;99.90
10492;DHT22;5293;51.464;-2.566;2023-06-10T12:48:19;27.10;99.90
10492;DHT22;5293;51.464;-2.566;2023-06-10T12:50:54;27.10;99.90
10492;DHT22;5293;51.464;-2.566;2023-06-10T12:53:20;26.90;99.90
10492;DHT22;5293;51.464;-2.566;2023-06-10T12:55:47;27.00;99.90
10492;DHT22;5293;51.464;-2.566;2023-06-10T12:58:12;27.10;99.90
10492;DHT22;5293;51.464;-2.566;2023-06-10T13:00:39;27.30;99.90
10492;DHT22;5293;51.464;-2.566;2023-06-10T13:03:05;27.50;99.90
10492;DHT22;5293;51.464;-2.566;2023-06-10T13:05:32;27.60;99.90
10492;DHT22;5293;51.464;-2.566;2023-06-10T13:07:58;27.60;99.90
10492;DHT22;5293;51.464;-2.566;2023-06-10T13:10:24;27.50;99.90
10492;DHT22;5293;51.464;-2.566;2023-06-10T13:12:50;27.60;99.90
10492;DHT22;5293;51.464;-2.566;2023-06-10T13:15:16;27.50;99.90
10492;DHT22;5293;51.464;-2.566;2023-06-10T13:17:45;27.30;99.90
10492;DHT22;5293;51.464;-2.566;2023-06-10T13:20:15;27.20;99.90
10492;DHT22;5293;51.464;-2.566;2023-06-10T13:22:44;27.10;99.90
10492;DHT22;5293;51.464;-2.566;2023-06-10T13:25:10;27.10;99.90
10492;DHT22;5293;51.464;-2.566;2023-06-10T13:27:36;27.10;99.90
10492;DHT22;5293;51.464;-2.566;2023-06-10T13:30:06;27.30;99.90
10492;DHT22;5293;51.464;-2.566;2023-06-10T13:32:32;27.10;99.90
10492;DHT22;5293;51.464;-2.566;2023-06-10T13:34:58;27.30;99.90
10492;DHT22;5293;51.464;-2.566;2023-06-10T13:37:23;27.30;99.90
10492;DHT22;5293;51.464;-2.566;2023-06-10T13:39:49;27.30;99.90
10492;DHT22;5293;51.464;-2.566;2023-06-10T13:42:17;27.30;99.90
10492;DHT22;5293;51.464;-2.566;2023-06-10T13:44:43;27.30;99.90
10492;DHT22;5293;51.464;-2.566;2023-06-10T13:47:08;27.10;99.90
10492;DHT22;5293;51.464;-2.566;2023-06-10T13:49:34;27.20;99.90
10492;DHT22;5293;51.464;-2.566;2023-06-10T13:52:01;27.40;99.90
10492;DHT22;5293;51.464;-2.566;2023-06-10T13:54:27;27.60;99.90
10492;DHT22;5293;51.464;-2.566;2023-06-10T13:56:53;27.50;99.90
10492;DHT22;5293;51.464;-2.566;2023-06-10T13:59:19;27.60;99.90
10492;DHT22;5293;51.464;-2.566;2023-06-10T14:01:45;27.70;99.90
10492;DHT22;5293;51.464;-2.566;2023-06-10T14:04:11;27.70;99.90
10492;DHT22;5293;51.464;-2.566;2023-06-10T14:06:37;27.60;99.90
10492;DHT22;5293;51.464;-2.566;2023-06-10T14:09:03;27.40;99.90
10492;DHT22;5293;51.464;-2.566;2023-06-10T14:11:28;27.40;99.90
10492;DHT22;5293;51.464;-2.566;2023-06-10T14:13:54;27.40;99.90
10492;DHT22;5293;51.464;-2.566;2023-06-10T14:16:23;27.20;99.90
10492;DHT22;5293;51.464;-2.566;2023-06-10T14:18:50;27.30;99.90
10492;DHT22;5293;51.464;-2.566;2023-06-10T14:21:19;27.10;99.90
10492;DHT22;5293;51.464;-2.566;2023-06-10T14:23:44;26.90;99.90
10492;DHT22;5293;51.464;-2.566;2023-06-10T14:26:11;26.80;99.90
10492;DHT22;5293;51.464;-2.566;2023-06-10T14:28:37;26.80;99.90
10492;DHT22;5293;51.464;-2.566;2023-06-10T14:31:03;26.60;99.90
10492;DHT22;5293;51.464;-2.566;2023-06-10T14:33:28;26.30;99.90
10492;DHT22;5293;51.464;-2.566;2023-06-10T14:35:56;26.10;99.90
10492;DHT22;5293;51.464;-2.566;2023-06-10T14:38:22;26.00;99.90
10492;DHT22;5293;51.464;-2.566;2023-06-10T14:40:47;26.00;99.90
10492;DHT22;5293;51.464;-2.566;2023-06-10T14:43:13;26.00;99.90
10492;DHT22;5293;51.464;-2.566;2023-06-10T14:45:40;25.90;99.90
10492;DHT22;5293;51.464;-2.566;2023-06-10T14:48:06;26.10;99.90
10492;DHT22;5293;51.464;-2.566;2023-06-10T14:50:34;26.00;99.90
10492;DHT22;5293;51.464;-2.566;2023-06-10T14:53:00;26.00;99.90
10492;DHT22;5293;51.464;-2.566;2023-06-10T14:55:26;26.00;99.90
10492;DHT22;5293;51.464;-2.566;2023-06-10T14:57:52;26.00;99.90
10492;DHT22;5293;51.464;-2.566;2023-06-10T15:00:18;26.00;99.90
10492;DHT22;5293;51.464;-2.566;2023-06-10T15:02:47;25.90;99.90
10492;DHT22;5293;51.464;-2.566;2023-06-10T15:05:14;25.80;99.90
10492;DHT22;5293;51.464;-2.566;2023-06-10T15:07:43;25.70;99.90
10492;DHT22;5293;51.464;-2.566;2023-06-10T15:10:09;25.80;99.90
10492;DHT22;5293;51.464;-2.566;2023-06-10T15:12:35;25.80;99.90
10492;DHT22;5293;51.464;-2.566;2023-06-10T15:15:01;25.90;99.90
10492;DHT22;5293;51.464;-2.566;2023-06-10T15:17:27;25.80;99.90
10492;DHT22;5293;51.464;-2.566;2023-06-10T15:19:53;25.80;99.90
10492;DHT22;5293;51.464;-2.566;2023-06-10T15:22:18;25.80;99.90
10492;DHT22;5293;51.464;-2.566;2023-06-10T15:24:44;25.80;99.90
10492;DHT22;5293;51.464;-2.566;2023-06-10T15:27:10;25.70;99.90
10492;DHT22;5293;51.464;-2.566;2023-06-10T15:29:35;25.70;99.90
10492;DHT22;5293;51.464;-2.566;2023-06-10T15:32:01;25.70;99.90
10492;DHT22;5293;51.464;-2.566;2023-06-10T15:34:27;25.60;99.90
10492;DHT22;5293;51.464;-2.566;2023-06-10T15:36:52;25.60;99.90
10492;DHT22;5293;51.464;-2.566;2023-06-10T15:39:18;25.60;99.90
10492;DHT22;5293;51.464;-2.566;2023-06-10T15:41:44;25.60;99.90
10492;DHT22;5293;51.464;-2.566;2023-06-10T15:44:10;25.60;99.90